Time;durP1;ratioP1;P1;durP2;ratioP2;P2;SDS_P1;SDS_P2;PMS_P1;PMS_P2;Temp;Humidity;BMP_temperature;BMP_pressure;BME280_temperature;BME280_humidity;BME280_pressure;Samples;Min_cycle;Max_cycle;Signal;HPM_P1;HPM_P2
2021/06/26 00:00:57;;;;;;;12.38;8.38;;;17.80;80.90;;;16.46;78.41;96325.63;4980642;28;20506;-69
2021/06/26 00:03:26;;;;;;;12.02;8.85;;;17.80;81.00;;;16.46;78.99;96326.44;4987031;28;20109;-69
2021/06/26 00:05:51;;;;;;;11.25;8.90;;;17.80;80.90;;;16.48;78.55;96323.56;4981770;28;20041;-69
2021/06/26 00:08:17;;;;;;;13.15;9.10;;;17.80;81.00;;;16.41;79.45;96318.31;5021518;22;20034;-69
2021/06/26 00:10:44;;;;;;;11.35;8.55;;;17.70;80.90;;;16.43;78.68;96332.19;5037929;28;20098;-70
2021/06/26 00:13:09;;;;;;;11.20;7.97;;;17.70;81.10;;;16.47;79.21;96321.94;5003148;28;20043;-68
2021/06/26 00:15:35;;;;;;;10.95;8.68;;;17.80;81.00;;;16.45;79.04;96321.34;5045765;28;20078;-69
2021/06/26 00:18:01;;;;;;;10.80;9.32;;;17.80;81.00;;;16.46;79.08;96326.44;5035335;28;20128;-69
2021/06/26 00:20:27;;;;;;;9.65;8.65;;;17.80;81.00;;;16.45;79.62;96322.16;4992225;28;20037;-68
2021/06/26 00:22:53;;;;;;;12.63;9.60;;;17.70;80.90;;;16.41;79.57;96317.50;4994377;28;20045;-68
2021/06/26 00:25:19;;;;;;;10.30;9.15;;;17.70;81.00;;;16.41;78.83;96318.31;4975001;28;20049;-69
2021/06/26 00:27:44;;;;;;;11.90;9.75;;;17.70;81.00;;;16.43;79.02;96337.50;5026293;28;20461;-69
2021/06/26 00:30:11;;;;;;;11.60;10.23;;;17.70;81.10;;;16.41;79.50;96326.28;5000475;28;20057;-69
2021/06/26 00:32:36;;;;;;;12.65;9.80;;;17.70;81.20;;;16.39;78.98;96319.56;5012126;28;20508;-69
2021/06/26 00:35:03;;;;;;;13.35;9.90;;;17.70;81.10;;;16.37;78.91;96311.81;5010545;28;20132;-69
2021/06/26 00:37:29;;;;;;;12.15;9.32;;;17.70;81.00;;;16.37;79.32;96311.03;5023429;28;20037;-69
2021/06/26 00:39:54;;;;;;;12.52;9.52;;;17.60;81.20;;;16.33;78.90;96305.34;5007141;28;20040;-69
2021/06/26 00:42:20;;;;;;;12.75;9.88;;;17.60;81.10;;;16.31;79.83;96311.91;5020212;28;20034;-69
2021/06/26 00:44:46;;;;;;;12.65;10.07;;;17.60;81.20;;;16.27;79.99;96311.50;4991564;28;20037;-69
2021/06/26 00:47:12;;;;;;;13.27;9.05;;;17.60;81.10;;;16.25;79.62;96313.56;5001639;28;20503;-69
2021/06/26 00:49:41;;;;;;;9.65;8.65;;;17.60;81.20;;;16.23;79.47;96318.28;4999641;28;20034;-69
2021/06/26 00:52:07;;;;;;;11.18;8.90;;;17.50;81.30;;;16.20;79.07;96316.06;5008114;28;20508;-69
2021/06/26 00:54:34;;;;;;;11.80;8.38;;;17.50;81.30;;;16.16;79.46;96309.59;5008527;28;20512;-69
2021/06/26 00:57:00;;;;;;;11.73;8.95;;;17.50;81.40;;;16.13;80.40;96312.69;4986692;28;20087;-69
2021/06/26 00:59:26;;;;;;;9.60;8.27;;;17.50;81.40;;;16.09;79.96;96314.16;4990560;28;20117;-69
2021/06/26 01:01:52;;;;;;;13.23;9.60;;;17.40;81.30;;;16.07;79.95;96308.22;4983231;28;20092;-69
2021/06/26 01:04:17;;;;;;;10.68;8.80;;;17.30;81.30;;;16.04;79.92;96306.00;5025414;28;20505;-69
2021/06/26 01:06:43;;;;;;;9.75;8.32;;;17.30;81.20;;;16.03;79.14;96304.38;4977347;28;20517;-68
2021/06/26 01:09:09;;;;;;;10.82;8.20;;;17.30;81.10;;;15.99;79.11;96297.91;5019297;28;20095;-69
2021/06/26 01:11:34;;;;;;;9.95;8.45;;;17.20;81.10;;;15.94;80.12;96293.25;5017099;28;20046;-69
2021/06/26 01:14:01;;;;;;;12.38;8.98;;;17.20;81.10;;;15.91;80.28;96293.69;5016219;28;20379;-68
2021/06/26 01:16:27;;;;;;;13.05;10.02;;;17.20;81.10;;;15.85;80.06;96300.69;4993703;28;20128;-69
2021/06/26 01:18:53;;;;;;;10.57;9.32;;;17.10;81.00;;;15.82;79.88;96298.44;4992631;28;20038;-68
2021/06/26 01:21:19;;;;;;;10.95;9.23;;;17.10;81.10;;;15.81;80.20;96299.47;5006309;28;20084;-69
2021/06/26 01:23:46;;;;;;;14.05;10.48;;;17.10;81.10;;;15.79;79.30;96292.75;4991333;28;20089;-68
2021/06/26 01:26:13;;;;;;;13.38;9.57;;;17.10;81.20;;;15.78;79.45;96301.75;4992030;28;20044;-68
2021/06/26 01:28:39;;;;;;;12.20;10.07;;;17.10;81.10;;;15.76;79.01;96296.66;4979294;28;20034;-68
2021/06/26 01:31:05;;;;;;;12.88;9.27;;;17.10;81.00;;;15.74;79.27;96304.03;5025533;28;20034;-69
2021/06/26 01:33:31;;;;;;;14.68;9.52;;;17.10;81.00;;;15.67;79.62;96297.97;5022303;28;20037;-69
2021/06/26 01:35:57;;;;;;;11.75;9.90;;;17.00;81.00;;;15.61;79.10;96290.84;4993153;28;20120;-69
2021/06/26 01:38:23;;;;;;;11.45;8.93;;;16.90;81.00;;;15.57;79.05;96286.97;5028376;28;20057;-69
2021/06/26 01:40:48;;;;;;;11.75;8.27;;;16.90;81.10;;;15.52;80.36;96286.81;5005988;28;20570;-69
2021/06/26 01:43:14;;;;;;;10.80;8.32;;;16.80;81.00;;;15.52;79.33;96284.97;4988742;28;20113;-68
2021/06/26 01:45:40;;;;;;;11.13;8.73;;;16.80;81.00;;;15.48;80.32;96283.78;5003955;28;20489;-69
2021/06/26 01:48:06;;;;;;;11.02;8.43;;;16.70;81.10;;;15.42;79.01;96281.19;5005095;28;20171;-69
2021/06/26 01:50:32;;;;;;;11.60;9.13;;;16.70;81.10;;;15.37;79.95;96283.66;5004812;28;20136;-68
2021/06/26 01:53:00;;;;;;;13.52;9.20;;;16.60;81.20;;;15.33;79.93;96291.22;4991421;28;20091;-69
2021/06/26 01:55:26;;;;;;;12.38;9.32;;;16.60;81.40;;;15.32;79.80;96282.47;5017667;28;20040;-69
2021/06/26 01:57:51;;;;;;;12.65;9.25;;;16.70;81.40;;;15.31;79.62;96280.84;5001562;28;20026;-69
2021/06/26 02:00:18;;;;;;;10.73;9.00;;;16.60;81.40;;;15.29;79.69;96277.59;5017167;28;20038;-69
2021/06/26 02:02:44;;;;;;;11.35;9.00;;;16.60;81.50;;;15.22;79.16;96287.44;5007303;28;20087;-69
2021/06/26 02:05:12;;;;;;;14.65;9.57;;;16.50;81.50;;;15.21;81.05;96280.50;5005890;28;20167;-69
2021/06/26 02:07:38;;;;;;;11.02;9.45;;;16.50;81.70;;;15.22;80.87;96281.31;5023859;28;20029;-69
2021/06/26 02:10:05;;;;;;;10.52;9.07;;;16.50;81.80;;;15.22;81.19;96279.47;4995614;28;20044;-69
2021/06/26 02:12:31;;;;;;;11.73;8.35;;;16.50;81.70;;;15.20;79.59;96278.06;5024250;28;20083;-69
2021/06/26 02:14:57;;;;;;;14.40;8.55;;;16.50;81.60;;;15.19;79.34;96285.22;4999145;28;20511;-69
2021/06/26 02:17:23;;;;;;;9.55;8.30;;;16.50;81.50;;;15.16;79.44;96284.81;5000723;28;20034;-69
2021/06/26 02:19:49;;;;;;;12.18;8.88;;;16.50;81.40;;;15.12;79.57;96297.66;5022196;28;20487;-69
2021/06/26 02:22:15;;;;;;;10.82;8.93;;;16.40;81.60;;;15.09;80.38;96298.09;4995637;28;20050;-69
2021/06/26 02:24:41;;;;;;;15.05;8.93;;;16.30;81.90;;;15.05;79.81;96286.31;5022977;28;20029;-69
2021/06/26 02:27:07;;;;;;;11.77;8.98;;;16.40;81.70;;;15.04;79.33;96284.69;4978656;28;20458;-69
2021/06/26 02:29:33;;;;;;;13.07;8.88;;;16.40;81.60;;;15.01;80.11;96287.75;5022355;28;20042;-68
2021/06/26 02:31:59;;;;;;;13.30;9.05;;;16.40;81.60;;;15.00;80.56;96288.78;5015466;28;20029;-69
2021/06/26 02:34:24;;;;;;;10.27;8.18;;;16.30;81.60;;;14.99;79.90;96287.16;5022705;28;20037;-69
2021/06/26 02:36:50;;;;;;;10.07;8.32;;;16.30;81.50;;;14.96;81.30;96282.28;5021211;28;20034;-68
2021/06/26 02:39:17;;;;;;;9.52;8.52;;;16.30;81.60;;;14.95;79.31;96293.91;5029581;28;20025;-68
2021/06/26 02:41:42;;;;;;;12.15;8.63;;;16.30;81.60;;;14.91;79.83;96295.31;5003836;28;20057;-69
2021/06/26 02:44:08;;;;;;;9.75;8.23;;;16.20;81.80;;;14.91;79.43;96300.63;4987190;28;20030;-69
2021/06/26 02:46:34;;;;;;;9.45;8.05;;;16.20;82.00;;;14.89;79.71;96294.72;4992970;28;20088;-69
2021/06/26 02:49:00;;;;;;;10.13;8.65;;;16.20;81.90;;;14.85;81.15;96297.00;5029234;28;20029;-69
2021/06/26 02:51:25;;;;;;;8.85;7.50;;;16.20;81.90;;;14.86;79.61;96292.50;5012854;28;20048;-68
2021/06/26 02:53:51;;;;;;;10.25;7.43;;;16.20;81.80;;;14.83;80.57;96287.63;4985426;28;20065;-69
2021/06/26 02:56:17;;;;;;;9.07;7.32;;;16.10;81.90;;;14.78;80.21;96295.41;4983296;28;20097;-69
2021/06/26 02:58:42;;;;;;;9.68;7.40;;;16.10;81.90;;;14.78;81.26;96284.81;4989835;28;20068;-69
2021/06/26 03:01:08;;;;;;;11.18;8.00;;;16.10;81.90;;;14.76;81.30;96292.97;5018809;28;20037;-68
2021/06/26 03:03:34;;;;;;;9.13;8.20;;;16.10;81.90;;;14.74;80.06;96295.00;5010124;28;20107;-68
2021/06/26 03:06:00;;;;;;;10.35;8.60;;;16.10;82.20;;;14.74;80.63;96295.00;4988620;28;20060;-68
2021/06/26 03:08:25;;;;;;;10.20;7.80;;;16.10;82.10;;;14.70;80.06;96294.59;5018508;28;20387;-69
2021/06/26 03:10:51;;;;;;;9.75;7.95;;;16.10;81.80;;;14.68;80.80;96294.00;5000828;28;20084;-69
2021/06/26 03:13:17;;;;;;;11.50;8.10;;;16.00;81.70;;;14.61;80.75;96287.91;4990269;28;20118;-69
2021/06/26 03:15:44;;;;;;;14.35;7.68;;;16.00;81.80;;;14.57;80.56;96289.38;5024154;28;20476;-69
2021/06/26 03:18:09;;;;;;;10.57;8.48;;;16.00;81.80;;;14.54;80.02;96284.50;5008140;28;20037;-68
2021/06/26 03:20:35;;;;;;;9.52;7.35;;;15.90;81.80;;;14.47;80.58;96281.03;5020334;28;20581;-69
2021/06/26 03:23:01;;;;;;;6.50;5.90;;;15.90;81.60;;;14.39;81.89;96274.13;5015059;28;20469;-69
2021/06/26 03:25:26;;;;;;;6.10;5.13;;;15.80;81.60;;;14.32;81.13;96275.97;5020362;28;20528;-69
2021/06/26 03:27:52;;;;;;;7.30;4.75;;;15.70;81.90;;;14.34;81.25;96268.66;5009439;28;20418;-69
2021/06/26 03:30:18;;;;;;;6.40;4.50;;;15.70;82.10;;;14.36;80.23;96271.06;5000923;28;20061;-68
2021/06/26 03:32:44;;;;;;;6.53;5.35;;;15.70;82.10;;;14.39;81.77;96281.25;5004367;28;20066;-69
2021/06/26 03:35:11;;;;;;;7.10;6.10;;;15.80;82.20;;;14.38;80.93;96275.13;5017962;28;20104;-69
2021/06/26 03:37:36;;;;;;;6.90;6.20;;;15.70;82.20;;;14.36;80.67;96271.88;5025210;28;20497;-69
2021/06/26 03:40:03;;;;;;;6.90;5.45;;;15.70;82.40;;;14.35;81.54;96274.75;5020471;28;20037;-69
2021/06/26 03:42:29;;;;;;;5.40;4.90;;;15.70;82.50;;;14.37;81.52;96278.00;5022100;28;20081;-68
2021/06/26 03:44:55;;;;;;;6.05;5.45;;;15.80;82.50;;;14.38;80.66;96271.69;5020738;28;20033;-69
2021/06/26 03:47:20;;;;;;;11.98;5.15;;;15.70;81.90;;;14.36;81.99;96273.72;5024164;28;20505;-69
2021/06/26 03:49:46;;;;;;;5.22;4.72;;;15.70;81.50;;;14.35;81.64;96278.22;5029524;28;20406;-69
2021/06/26 03:52:12;;;;;;;5.65;5.15;;;15.70;81.50;;;14.32;81.49;96285.75;5020024;28;20030;-69
2021/06/26 03:54:37;;;;;;;5.57;5.00;;;15.70;81.40;;;14.32;80.09;96281.28;5009298;28;20029;-69
2021/06/26 03:57:03;;;;;;;5.28;4.72;;;15.70;81.50;;;14.32;80.42;96285.75;5039142;28;20072;-70
2021/06/26 03:59:29;;;;;;;4.97;4.47;;;15.70;81.70;;;14.33;81.06;96288.19;5008248;28;20058;-69
2021/06/26 04:01:55;;;;;;;5.65;4.63;;;15.70;81.80;;;14.35;81.04;96285.34;4993432;28;20505;-69
2021/06/26 04:04:21;;;;;;;4.90;4.15;;;15.70;82.00;;;14.35;80.23;96286.16;4986902;28;20124;-68
2021/06/26 04:06:47;;;;;;;4.65;4.25;;;15.80;81.90;;;14.33;81.92;96282.91;5008660;28;20544;-68
2021/06/26 04:09:13;;;;;;;6.68;5.18;;;15.70;82.10;;;14.32;81.16;96280.47;5006084;28;20117;-68
2021/06/26 04:11:39;;;;;;;5.53;5.03;;;15.80;82.50;;;14.30;82.41;96282.50;5018413;28;20121;-68
2021/06/26 04:14:05;;;;;;;6.68;6.03;;;15.80;82.50;;;14.30;82.34;96282.50;5007140;28;20116;-68
2021/06/26 04:16:31;;;;;;;7.43;6.60;;;15.80;82.70;;;14.31;81.56;96284.13;4986934;28;20044;-68
2021/06/26 04:18:57;;;;;;;7.35;6.15;;;15.80;82.80;;;14.35;82.34;96290.63;5019649;28;20458;-69
2021/06/26 04:21:23;;;;;;;7.40;6.15;;;15.90;82.80;;;14.38;81.55;96284.91;5019482;28;20031;-68
2021/06/26 04:23:49;;;;;;;8.00;7.10;;;15.90;82.90;;;14.42;83.07;96291.41;5024554;28;20037;-66
2021/06/26 04:26:14;;;;;;;7.40;6.60;;;15.90;83.00;;;14.47;83.47;96288.97;4989965;28;20060;-67
2021/06/26 04:28:40;;;;;;;7.63;6.82;;;16.10;83.20;;;14.50;82.70;96293.88;5008803;28;20034;-66
2021/06/26 04:31:06;;;;;;;8.35;7.55;;;16.10;83.30;;;14.55;83.04;96294.06;5022142;28;20176;-68
2021/06/26 04:33:32;;;;;;;7.75;6.68;;;16.10;83.40;;;14.61;82.28;96289.75;5027075;28;20087;-67
2021/06/26 04:35:57;;;;;;;8.63;7.57;;;16.20;83.30;;;14.64;82.52;96292.78;4991705;28;20077;-68
2021/06/26 04:38:23;;;;;;;10.15;7.82;;;16.30;83.40;;;14.69;83.40;96285.03;4992169;28;20073;-68
2021/06/26 04:40:54;;;;;;;9.05;7.50;;;16.30;83.30;;;14.76;84.35;96289.50;5007692;28;20041;-68
2021/06/26 04:43:20;;;;;;;11.73;8.38;;;16.40;83.30;;;14.82;82.45;96296.59;4966422;28;20189;-67
2021/06/26 04:45:48;;;;;;;10.15;8.13;;;16.40;83.60;;;14.86;83.73;96288.03;4992702;28;20054;-67
2021/06/26 04:48:19;;;;;;;11.10;9.23;;;16.50;83.80;;;14.93;84.57;96287.97;5023571;28;20036;-67
2021/06/26 04:50:46;;;;;;;21.42;19.10;;;16.50;84.10;;;14.97;82.87;96290.03;5011549;28;20478;-68
2021/06/26 04:53:12;;;;;;;20.88;16.77;;;16.60;84.00;;;15.04;83.88;96289.97;5026154;28;20045;-67
2021/06/26 04:55:37;;;;;;;14.75;11.25;;;16.70;84.00;;;15.06;83.59;96290.56;4995124;28;20033;-67
2021/06/26 04:58:03;;;;;;;16.50;14.07;;;16.70;83.80;;;15.14;84.70;96294.81;5027848;28;20033;-68
2021/06/26 05:00:29;;;;;;;14.23;10.73;;;16.80;83.50;;;15.18;84.27;96286.25;4992203;28;20037;-68
2021/06/26 05:02:54;;;;;;;11.65;10.18;;;16.80;83.40;;;15.19;83.76;96287.88;5028439;28;21098;-68
2021/06/26 05:05:20;;;;;;;10.60;9.43;;;16.80;82.90;;;15.23;84.18;96291.72;5016745;28;20542;-67
2021/06/26 05:07:46;;;;;;;16.35;11.32;;;17.00;83.20;;;15.29;84.72;96300.63;5011222;28;20581;-67
2021/06/26 05:10:12;;;;;;;13.57;10.50;;;17.00;83.40;;;15.32;84.46;96298.38;5024388;28;20448;-67
2021/06/26 05:12:44;;;;;;;11.57;10.30;;;17.00;83.30;;;15.40;84.84;96299.97;5024402;28;20524;-67
2021/06/26 05:15:11;;;;;;;13.98;11.40;;;17.10;83.20;;;15.43;83.03;96299.53;5036940;28;20033;-67
2021/06/26 05:17:36;;;;;;;14.35;12.55;;;17.10;83.20;;;15.47;84.27;96299.91;4999639;28;20042;-67
2021/06/26 05:20:04;;;;;;;15.25;12.48;;;17.10;82.80;;;15.53;83.51;96299.84;5008053;28;20045;-67
2021/06/26 05:22:30;;;;;;;20.05;15.60;;;17.30;82.30;;;15.61;84.29;96307.59;5008787;28;20034;-67
2021/06/26 05:24:55;;;;;;;30.83;25.65;;;17.40;82.30;;;15.71;82.89;96301.81;5015607;28;20047;-66
2021/06/26 05:27:21;;;;;;;20.58;16.73;;;17.50;82.20;;;15.85;84.06;96303.34;5011318;28;20038;-66
2021/06/26 05:29:48;;;;;;;15.13;12.13;;;17.60;81.80;;;15.93;82.67;96300.41;5009478;28;20042;-67
2021/06/26 05:32:13;;;;;;;15.80;12.90;;;17.70;80.80;;;15.99;82.96;96295.25;5009642;28;20528;-66
2021/06/26 05:34:39;;;;;;;21.27;16.25;;;17.80;80.40;;;16.15;83.21;96300.00;5027869;28;20034;-67
2021/06/26 05:37:05;;;;;;;17.23;14.68;;;18.10;80.00;;;16.30;82.52;96300.47;5028234;28;20095;-67
2021/06/26 05:39:31;;;;;;;16.27;13.57;;;18.30;79.40;;;16.42;81.86;96304.00;5028758;28;20038;-67
2021/06/26 05:41:56;;;;;;;14.32;11.25;;;18.40;78.40;;;16.51;81.62;96305.34;5032299;28;20470;-67
2021/06/26 05:44:22;;;;;;;16.88;13.57;;;18.40;78.20;;;16.57;82.03;96302.84;5018429;28;20673;-68
2021/06/26 05:46:48;;;;;;;18.00;15.38;;;18.40;78.10;;;16.63;81.50;96296.63;5017892;28;20443;-67
2021/06/26 05:49:14;;;;;;;15.00;13.35;;;18.50;78.10;;;16.75;80.75;96305.53;5032380;28;20444;-69
2021/06/26 05:51:39;;;;;;;21.98;18.20;;;18.70;77.20;;;16.90;80.72;96302.47;5033353;28;20117;-67
2021/06/26 05:54:05;;;;;;;14.05;12.48;;;19.00;77.50;;;17.07;80.98;96309.63;5029548;28;20041;-68
2021/06/26 05:56:31;;;;;;;13.07;11.57;;;19.00;77.20;;;17.22;80.58;96311.88;5033275;28;20038;-65
2021/06/26 05:58:57;;;;;;;14.20;10.95;;;19.30;77.20;;;17.43;79.67;96310.56;5027120;28;20103;-68
2021/06/26 06:01:24;;;;;;;12.85;11.10;;;19.50;76.20;;;17.60;80.12;96306.22;5031934;28;20037;-70
2021/06/26 06:03:52;;;;;;;33.15;27.67;;;19.70;75.70;;;17.78;80.06;96307.22;5027714;28;20373;-70
2021/06/26 06:06:18;;;;;;;35.85;30.55;;;19.90;74.00;;;17.98;79.72;96310.38;5031125;28;20132;-67
2021/06/26 06:08:44;;;;;;;19.02;16.42;;;20.10;74.00;;;18.19;78.69;96301.00;4991472;28;20049;-68
2021/06/26 06:11:09;;;;;;;15.98;12.77;;;20.40;73.20;;;18.40;78.11;96299.59;4994568;28;20034;-68
2021/06/26 06:13:35;;;;;;;10.73;9.30;;;20.50;72.30;;;18.57;78.01;96297.84;5023791;28;20520;-68
2021/06/26 06:16:01;;;;;;;9.85;8.02;;;20.80;69.50;;;18.67;76.95;96290.91;5038891;28;20094;-67
2021/06/26 06:18:27;;;;;;;11.00;9.88;;;20.80;69.20;;;18.84;75.99;96296.31;5010578;28;20057;-68
2021/06/26 06:20:52;;;;;;;10.85;9.15;;;21.00;68.30;;;18.98;75.63;96286.97;4994862;28;20066;-68
2021/06/26 06:23:18;;;;;;;11.48;10.13;;;21.10;68.40;;;19.17;75.82;96284.13;5019762;28;20087;-68
2021/06/26 06:25:44;;;;;;;9.15;8.15;;;21.40;68.60;;;19.41;74.95;96285.66;5023780;28;20065;-66
2021/06/26 06:28:09;;;;;;;9.40;8.02;;;21.70;68.40;;;19.65;74.96;96282.88;5030076;28;20095;-68
2021/06/26 06:30:35;;;;;;;10.27;8.82;;;21.90;66.40;;;19.82;74.21;96278.38;5031798;28;20481;-67
2021/06/26 06:33:04;;;;;;;11.90;8.40;;;22.20;65.10;;;20.00;71.29;96278.13;5026937;28;20038;-68
2021/06/26 06:35:30;;;;;;;11.82;9.45;;;22.50;63.70;;;20.21;72.69;96281.09;5006730;28;20029;-68
2021/06/26 06:37:56;;;;;;;14.30;10.05;;;22.70;62.20;;;20.40;71.35;96283.28;5017351;28;20508;-67
2021/06/26 06:40:22;;;;;;;11.68;9.82;;;22.90;61.80;;;20.58;71.23;96278.69;5031226;28;20037;-68
2021/06/26 06:42:47;;;;;;;13.05;10.45;;;23.10;60.90;;;20.78;70.65;96289.63;5026760;28;20572;-67
2021/06/26 06:45:13;;;;;;;14.60;10.65;;;23.20;60.60;;;21.02;70.65;96290.19;5011602;28;20026;-68
2021/06/26 06:47:39;;;;;;;12.15;10.05;;;23.50;60.00;;;21.19;69.31;96280.22;4997188;28;20038;-67
2021/06/26 06:50:06;;;;;;;12.20;10.07;;;23.70;58.90;;;21.35;68.64;96284.72;5030070;28;20033;-66
2021/06/26 06:52:32;;;;;;;13.65;10.18;;;23.80;58.40;;;21.60;68.42;96280.66;5030664;28;20033;-67
2021/06/26 06:54:58;;;;;;;12.82;9.38;;;24.20;58.20;;;21.89;67.72;96286.53;5008341;28;20121;-69
2021/06/26 06:57:25;;;;;;;12.57;9.20;;;24.60;56.70;;;22.15;67.18;96290.22;5009875;28;20034;-70
2021/06/26 06:59:51;;;;;;;16.92;12.40;;;24.90;55.80;;;22.30;66.82;96285.78;4993224;28;20049;-73
2021/06/26 07:02:17;;;;;;;12.45;9.95;;;24.80;55.10;;;22.50;65.83;96279.75;5025561;28;20044;-73
2021/06/26 07:04:43;;;;;;;10.18;9.10;;;25.20;53.40;;;22.77;65.10;96268.88;5030711;28;20037;-73
2021/06/26 07:07:09;;;;;;;14.90;10.63;;;25.60;53.30;;;23.07;64.29;96276.25;5018487;28;20465;-72
2021/06/26 07:09:34;;;;;;;11.18;9.13;;;26.00;51.70;;;23.31;63.52;96275.78;5010308;28;20034;-68
2021/06/26 07:12:00;;;;;;;12.05;8.60;;;26.10;51.00;;;23.43;62.62;96276.38;5022149;28;20041;-68
2021/06/26 07:14:26;;;;;;;11.68;9.20;;;25.80;51.40;;;23.47;61.13;96272.88;5025931;28;20557;-68
2021/06/26 07:16:52;;;;;;;13.38;10.63;;;25.90;51.00;;;23.49;60.45;96277.97;5035142;28;20045;-68
2021/06/26 07:19:18;;;;;;;15.57;12.23;;;25.70;51.00;;;23.50;60.83;96276.91;5030026;28;20037;-68
2021/06/26 07:21:44;;;;;;;17.30;12.55;;;25.90;51.20;;;23.61;61.01;96273.22;5023531;28;20659;-68
2021/06/26 07:24:10;;;;;;;10.15;8.68;;;26.10;52.30;;;23.66;59.40;96270.53;5018411;28;20045;-68
2021/06/26 07:26:36;;;;;;;11.00;8.82;;;26.20;51.00;;;23.76;59.62;96265.16;5021133;28;20408;-68
2021/06/26 07:29:02;;;;;;;10.80;7.45;;;26.50;50.20;;;23.91;59.49;96267.03;5030629;28;20095;-68
2021/06/26 07:31:27;;;;;;;11.65;8.98;;;26.70;50.50;;;24.00;58.75;96264.63;5024861;28;20125;-68
2021/06/26 07:33:53;;;;;;;12.40;8.93;;;26.90;48.50;;;24.10;58.23;96262.72;5011549;28;20030;-68
2021/06/26 07:36:19;;;;;;;7.78;6.93;;;27.20;47.50;;;24.33;58.23;96258.69;5013191;28;20108;-68
2021/06/26 07:38:45;;;;;;;12.93;9.30;;;27.60;46.90;;;24.49;57.83;96250.59;5030617;28;20071;-68
2021/06/26 07:41:10;;;;;;;12.50;10.23;;;27.30;46.10;;;24.66;56.54;96259.94;5028642;28;20061;-67
2021/06/26 07:43:36;;;;;;;8.95;7.45;;;27.80;45.40;;;24.88;56.83;96256.88;5050645;28;20573;-67
2021/06/26 07:46:03;;;;;;;9.32;6.65;;;28.20;45.60;;;25.09;55.94;96254.13;5035375;28;20037;-67
2021/06/26 07:48:29;;;;;;;7.68;6.75;;;28.30;43.90;;;25.28;55.42;96252.41;5030382;28;20045;-67
2021/06/26 07:50:55;;;;;;;9.38;8.18;;;28.70;43.90;;;25.53;55.19;96254.94;5019954;28;20486;-68
2021/06/26 07:53:21;;;;;;;7.85;6.25;;;29.00;43.10;;;25.84;53.99;96254.75;5023199;28;20038;-68
2021/06/26 07:55:51;;;;;;;12.18;6.03;;;29.40;41.30;;;25.97;53.55;96251.41;5020670;28;20046;-68
2021/06/26 07:58:22;;;;;;;6.55;5.85;;;29.40;40.60;;;26.15;50.65;96245.31;5010548;28;20042;-69
2021/06/26 08:00:48;;;;;;;7.38;6.43;;;29.60;40.90;;;26.34;52.46;96234.63;5016210;28;20671;-69
2021/06/26 08:03:17;;;;;;;10.23;8.90;;;29.70;40.30;;;26.42;50.13;96233.19;5008330;28;20096;-68
2021/06/26 08:05:43;;;;;;;11.48;8.77;;;29.80;40.80;;;26.47;50.93;96241.22;5028774;28;20057;-70
2021/06/26 08:08:09;;;;;;;6.60;5.88;;;29.50;40.30;;;26.54;50.79;96239.00;5030095;28;20033;-67
2021/06/26 08:10:35;;;;;;;7.60;5.93;;;29.60;40.70;;;26.63;50.46;96239.16;5022670;28;20504;-68
2021/06/26 08:13:01;;;;;;;5.82;4.90;;;29.80;40.70;;;26.74;50.29;96233.38;5010784;28;20034;-68
2021/06/26 08:15:26;;;;;;;5.80;5.00;;;30.10;40.40;;;26.80;49.84;96234.13;5015030;28;20030;-68
2021/06/26 08:17:52;;;;;;;5.53;4.88;;;30.00;38.70;;;26.95;49.49;96230.44;5030122;28;20049;-68
2021/06/26 08:20:18;;;;;;;5.72;5.03;;;30.30;39.20;;;27.17;49.17;96228.00;5025803;28;20096;-68
2021/06/26 08:22:44;;;;;;;5.60;4.78;;;30.20;39.50;;;27.22;49.23;96224.41;5010598;28;20052;-68
2021/06/26 08:25:10;;;;;;;7.82;5.03;;;29.80;41.00;;;27.24;49.26;96223.03;5011513;28;20045;-69
2021/06/26 08:27:36;;;;;;;11.48;6.07;;;30.00;40.60;;;27.39;49.63;96220.13;5028425;28;20038;-68
2021/06/26 08:30:01;;;;;;;10.63;8.93;;;30.40;40.40;;;27.61;48.45;96226.78;5028463;28;20052;-68
2021/06/26 08:32:27;;;;;;;6.20;5.00;;;30.60;40.00;;;27.82;48.43;96230.81;5021332;28;20061;-68
2021/06/26 08:34:53;;;;;;;5.93;3.92;;;30.90;38.20;;;28.02;47.10;96222.34;5010337;28;20034;-68
2021/06/26 08:37:18;;;;;;;6.03;4.25;;;31.10;37.90;;;28.18;46.54;96227.50;5009704;28;20073;-68
2021/06/26 08:39:44;;;;;;;5.78;4.47;;;31.20;37.20;;;28.37;47.11;96212.03;5009708;28;20080;-69
2021/06/26 08:42:10;;;;;;;5.28;4.60;;;31.20;38.20;;;28.54;45.91;96217.66;5023377;28;20038;-68
2021/06/26 08:44:36;;;;;;;6.45;5.05;;;31.50;37.70;;;28.70;46.23;96214.63;5040185;28;20500;-69
2021/06/26 08:47:01;;;;;;;5.40;4.78;;;31.70;37.10;;;28.80;45.20;96206.31;5037857;28;20489;-68
2021/06/26 08:49:27;;;;;;;6.30;4.43;;;31.70;37.10;;;28.90;44.93;96219.66;5028693;28;20040;-66
2021/06/26 08:51:54;;;;;;;8.15;5.78;;;31.90;36.50;;;28.97;44.98;96220.06;5020798;28;20042;-73
2021/06/26 08:54:20;;;;;;;5.93;4.35;;;31.60;37.60;;;28.91;44.24;96205.81;5009639;28;20045;-72
2021/06/26 08:56:46;;;;;;;4.85;3.97;;;31.50;36.10;;;28.89;44.50;96209.94;5016239;28;20436;-69
2021/06/26 08:59:12;;;;;;;5.47;4.90;;;31.80;37.00;;;28.92;44.26;96214.75;5028600;28;20551;-71
2021/06/26 09:01:39;;;;;;;8.73;7.57;;;31.80;36.00;;;28.92;43.02;96207.41;5021379;28;20041;-71
2021/06/26 09:04:16;;;;;;;5.75;4.47;;;31.90;35.60;;;28.93;42.17;96210.94;5028108;28;20033;-66
2021/06/26 09:06:52;;;;;;;6.70;3.40;;;32.00;35.50;;;29.00;41.95;96214.03;5022520;28;20117;-65
2021/06/26 09:09:35;;;;;;;5.20;3.10;;;32.10;35.70;;;29.10;41.40;96202.97;5008677;28;20042;-68
2021/06/26 09:12:11;;;;;;;4.85;3.13;;;32.10;35.90;;;29.19;42.15;96195.72;5011244;28;20042;-72
2021/06/26 09:14:38;;;;;;;4.82;3.80;;;32.20;35.50;;;29.29;43.50;96200.13;5021173;28;20057;-75
2021/06/26 09:17:05;;;;;;;4.65;3.60;;;32.50;36.70;;;29.40;43.34;96200.69;5015139;28;20102;-72
2021/06/26 09:19:32;;;;;;;3.70;3.33;;;32.60;35.70;;;29.47;42.87;96201.09;5022707;28;20603;-72
2021/06/26 09:22:12;;;;;;;3.72;3.30;;;32.80;34.10;;;29.59;41.33;96198.63;5020658;28;20041;-72
2021/06/26 09:24:44;;;;;;;3.80;3.50;;;32.90;34.70;;;29.69;43.04;96203.81;5018262;28;20439;-73
2021/06/26 09:27:12;;;;;;;3.95;3.40;;;32.90;35.20;;;29.80;41.96;96199.72;5014986;28;20059;-70
2021/06/26 09:29:56;;;;;;;6.25;3.42;;;33.00;33.20;;;29.83;40.28;96201.03;5032212;28;20037;-72
2021/06/26 09:32:23;;;;;;;4.63;3.42;;;32.90;34.80;;;29.83;40.79;96198.31;5028410;28;20043;-72
2021/06/26 09:34:49;;;;;;;5.03;3.85;;;33.00;33.20;;;29.89;41.51;96194.38;5020879;28;20065;-70
2021/06/26 09:37:24;;;;;;;3.50;3.20;;;33.10;33.50;;;29.96;40.11;96185.78;5021999;28;20045;-75
2021/06/26 09:39:52;;;;;;;5.47;3.42;;;33.10;34.10;;;30.04;40.56;96195.91;5032952;28;20030;-71
2021/06/26 09:42:30;;;;;;;3.72;3.30;;;33.30;33.90;;;30.20;39.35;96202.56;5022257;28;20033;-72
2021/06/26 09:45:03;;;;;;;10.50;7.65;;;33.60;32.80;;;30.38;37.68;96192.56;5013612;28;20034;-73
2021/06/26 09:47:45;;;;;;;7.63;4.60;;;33.70;31.50;;;30.61;39.11;96188.69;5022857;28;20041;-72
2021/06/26 09:50:17;;;;;;;5.22;3.13;;;34.00;33.30;;;30.79;38.63;96192.28;5031895;28;20055;-74
2021/06/26 09:52:48;;;;;;;5.43;3.22;;;34.10;32.40;;;30.91;39.58;96194.34;5032256;28;20068;-72
2021/06/26 09:55:27;;;;;;;3.92;3.03;;;34.10;31.90;;;31.16;39.45;96184.63;5029965;28;20078;-71
2021/06/26 09:58:15;;;;;;;6.18;3.38;;;34.60;33.20;;;31.08;36.71;96173.44;5037665;28;20037;-72
2021/06/26 10:00:42;;;;;;;4.65;3.50;;;33.70;31.60;;;30.69;39.25;96168.09;5042440;28;20605;-75
2021/06/26 10:03:08;;;;;;;4.47;3.60;;;33.40;32.60;;;30.52;39.83;96170.72;5020456;28;20056;-71
2021/06/26 10:05:34;;;;;;;4.45;3.55;;;33.50;32.60;;;30.62;40.20;96162.34;5030954;28;20159;-71
2021/06/26 10:08:02;;;;;;;3.45;3.00;;;34.10;32.70;;;31.05;40.00;96167.84;5032813;28;20176;-71
2021/06/26 10:10:28;;;;;;;3.33;2.67;;;34.70;32.70;;;31.48;40.03;96164.38;5037698;28;20044;-71